createdAt,value
2023-03-05T00:01:11.437Z,2.80
2023-03-05T00:03:38.723Z,2.80
2023-03-05T00:06:06.076Z,2.80
2023-03-05T00:08:33.273Z,2.80
2023-03-05T00:11:01.616Z,2.80
2023-03-05T00:13:28.726Z,2.80
2023-03-05T00:15:56.043Z,2.80
2023-03-05T00:18:23.008Z,2.80
2023-03-05T00:20:50.125Z,2.90
2023-03-05T00:23:17.397Z,2.90
2023-03-05T00:25:46.078Z,2.80
2023-03-05T00:28:13.344Z,3.00
2023-03-05T00:30:40.273Z,3.00
2023-03-05T00:33:07.514Z,3.00
2023-03-05T00:35:41.195Z,2.90
2023-03-05T00:38:08.575Z,2.90
2023-03-05T00:40:39.229Z,2.90
2023-03-05T00:43:06.472Z,2.90
2023-03-05T00:45:33.841Z,2.80
2023-03-05T00:48:01.013Z,2.90
2023-03-05T00:50:28.544Z,2.90
2023-03-05T00:52:55.599Z,3.00
2023-03-05T00:55:22.614Z,3.10
2023-03-05T00:57:49.637Z,3.10
2023-03-05T01:00:17.476Z,3.10
2023-03-05T01:02:44.415Z,3.00
2023-03-05T01:05:12.869Z,3.00
2023-03-05T01:07:40.285Z,3.10
2023-03-05T01:10:07.869Z,3.20
2023-03-05T01:12:34.784Z,3.30
2023-03-05T01:15:01.981Z,3.30
2023-03-05T01:17:29.015Z,3.40
2023-03-05T01:19:56.106Z,3.50
2023-03-05T01:22:23.095Z,3.70
2023-03-05T01:24:50.178Z,3.80
2023-03-05T01:27:17.050Z,3.90
2023-03-05T01:29:43.946Z,4.00
2023-03-05T01:32:10.973Z,4.00
2023-03-05T01:34:38.207Z,4.00
2023-03-05T01:37:05.417Z,4.00
2023-03-05T01:39:32.745Z,4.10
2023-03-05T01:41:59.833Z,4.10
2023-03-05T01:44:28.273Z,4.10
2023-03-05T01:46:55.246Z,4.10
2023-03-05T01:49:30.660Z,4.00
2023-03-05T01:52:00.397Z,4.00
2023-03-05T01:54:31.743Z,4.00
2023-03-05T01:56:59.598Z,4.00
2023-03-05T01:59:27.093Z,3.90
2023-03-05T02:01:56.175Z,4.00
2023-03-05T02:04:26.759Z,4.00
2023-03-05T02:06:53.688Z,4.00
2023-03-05T02:09:23.742Z,4.00
2023-03-05T02:11:51.028Z,4.00
2023-03-05T02:14:17.981Z,4.00
2023-03-05T02:16:44.954Z,3.90
2023-03-05T02:19:13.374Z,3.80
2023-03-05T02:21:45.617Z,3.80
2023-03-05T02:24:13.401Z,3.70
2023-03-05T02:26:41.760Z,3.60
2023-03-05T02:29:09.701Z,3.50
2023-03-05T02:31:39.119Z,3.50
2023-03-05T02:34:06.588Z,3.40
2023-03-05T02:36:33.674Z,3.30
2023-03-05T02:39:00.711Z,3.20
2023-03-05T02:41:27.713Z,3.40
2023-03-05T02:43:54.678Z,3.50
2023-03-05T02:46:21.568Z,3.60
2023-03-05T02:48:48.714Z,3.50
2023-03-05T02:51:15.586Z,3.50
2023-03-05T02:53:42.586Z,3.50
2023-03-05T02:56:09.537Z,3.60
2023-03-05T02:58:36.536Z,3.70
2023-03-05T03:01:03.444Z,3.70
2023-03-05T03:03:30.766Z,3.70
2023-03-05T03:05:57.744Z,3.80
2023-03-05T03:08:24.689Z,3.80
2023-03-05T03:10:51.526Z,3.80
2023-03-05T03:13:18.483Z,3.80
2023-03-05T03:15:45.382Z,3.80
2023-03-05T03:18:12.302Z,3.80
2023-03-05T03:20:39.607Z,3.70
2023-03-05T03:23:07.227Z,3.80
2023-03-05T03:25:34.358Z,3.80
2023-03-05T03:28:01.317Z,3.90
2023-03-05T03:30:28.259Z,3.90
2023-03-05T03:32:55.081Z,3.90
2023-03-05T03:35:22.072Z,3.90
2023-03-05T03:37:49.068Z,3.90
2023-03-05T03:40:15.951Z,4.00
2023-03-05T03:42:42.949Z,4.00
2023-03-05T03:45:10.267Z,4.00
2023-03-05T03:47:37.207Z,4.00
2023-03-05T03:50:04.351Z,4.10
2023-03-05T03:52:31.373Z,4.00
2023-03-05T03:55:01.844Z,4.00
2023-03-05T03:57:29.982Z,4.00
2023-03-05T03:59:57.003Z,4.00
2023-03-05T04:02:24.053Z,4.10
2023-03-05T04:04:51.089Z,4.00
2023-03-05T04:07:19.342Z,4.00
2023-03-05T04:09:46.174Z,4.10
2023-03-05T04:12:18.203Z,4.00
2023-03-05T04:14:46.086Z,3.90
2023-03-05T04:17:18.235Z,3.90
2023-03-05T04:19:45.609Z,4.00
2023-03-05T04:22:13.668Z,4.10
2023-03-05T04:24:40.790Z,4.20
2023-03-05T04:27:07.741Z,4.10
2023-03-05T04:29:34.897Z,4.10
2023-03-05T04:32:01.990Z,4.00
2023-03-05T04:34:29.045Z,4.00
2023-03-05T04:36:56.053Z,3.90
2023-03-05T04:39:22.982Z,4.00
2023-03-05T04:41:49.893Z,4.00
2023-03-05T04:44:17.876Z,3.90
2023-03-05T04:46:44.994Z,3.90
2023-03-05T04:49:11.973Z,3.80
2023-03-05T04:51:38.862Z,3.80
2023-03-05T04:54:05.808Z,3.70
2023-03-05T04:56:32.730Z,3.70
2023-03-05T04:58:59.630Z,3.80
2023-03-05T05:01:26.604Z,3.80
2023-03-05T05:03:53.443Z,3.80
2023-03-05T05:06:20.272Z,3.80
2023-03-05T05:08:47.252Z,3.80
2023-03-05T05:11:14.631Z,3.80
2023-03-05T05:13:41.593Z,3.80
2023-03-05T05:16:08.970Z,3.90
2023-03-05T05:18:36.040Z,4.00
2023-03-05T05:21:06.946Z,4.00
2023-03-05T05:23:33.893Z,4.00
2023-03-05T05:26:01.638Z,4.00
2023-03-05T05:28:28.842Z,4.00
2023-03-05T05:30:55.984Z,3.90
2023-03-05T05:33:23.137Z,4.00
2023-03-05T05:35:50.203Z,4.00
2023-03-05T05:38:17.190Z,4.00
2023-03-05T05:40:44.099Z,4.00
2023-03-05T05:43:10.987Z,4.00
2023-03-05T05:45:38.734Z,4.00
2023-03-05T05:48:07.088Z,4.00
2023-03-05T05:50:34.071Z,4.00
2023-03-05T05:53:00.973Z,4.10
2023-03-05T05:55:27.959Z,4.10
2023-03-05T05:57:54.827Z,4.10
2023-03-05T06:00:21.876Z,4.10
2023-03-05T06:02:48.857Z,4.10
2023-03-05T06:05:16.046Z,4.20
2023-03-05T06:07:43.823Z,4.30
2023-03-05T06:10:11.085Z,4.40
2023-03-05T06:12:38.018Z,4.60
2023-03-05T06:15:05.264Z,4.60
2023-03-05T06:17:32.187Z,4.70
2023-03-05T06:19:59.280Z,4.70
2023-03-05T06:22:26.248Z,4.60
2023-03-05T06:24:53.175Z,4.60
2023-03-05T06:27:20.134Z,4.60
2023-03-05T06:29:46.982Z,4.60
2023-03-05T06:32:13.993Z,4.60
2023-03-05T06:34:40.986Z,4.50
2023-03-05T06:37:07.821Z,4.60
2023-03-05T06:39:34.767Z,4.60
2023-03-05T06:42:01.735Z,4.50
2023-03-05T06:44:28.734Z,4.60
2023-03-05T06:46:55.696Z,4.60
2023-03-05T06:49:22.630Z,4.60
2023-03-05T06:51:49.652Z,4.60
2023-03-05T06:54:17.390Z,4.70
2023-03-05T06:56:45.525Z,4.80
2023-03-05T06:59:14.111Z,4.80
2023-03-05T07:01:41.035Z,4.80
2023-03-05T07:04:08.056Z,4.80
2023-03-05T07:06:36.429Z,4.80
2023-03-05T07:09:04.290Z,4.90
2023-03-05T07:11:31.168Z,4.90
2023-03-05T07:13:58.137Z,5.00
2023-03-05T07:16:26.480Z,5.20
2023-03-05T07:18:53.663Z,5.20
2023-03-05T07:21:23.264Z,5.30
2023-03-05T07:23:50.470Z,5.30
2023-03-05T07:26:17.518Z,5.40
2023-03-05T07:28:44.647Z,5.50
2023-03-05T07:31:16.314Z,5.70
2023-03-05T07:33:43.361Z,5.90
2023-03-05T07:36:13.873Z,6.00
2023-03-05T07:38:40.787Z,6.20
2023-03-05T07:41:09.499Z,6.30
2023-03-05T07:43:36.627Z,6.40
2023-03-05T07:46:04.728Z,6.40
2023-03-05T07:48:31.788Z,6.40
2023-03-05T07:51:09.286Z,6.40
2023-03-05T07:53:36.160Z,6.50
2023-03-05T07:56:03.187Z,6.50
2023-03-05T07:58:30.161Z,6.50
2023-03-05T08:00:57.121Z,6.50
2023-03-05T08:03:24.075Z,6.60
2023-03-05T08:05:51.103Z,6.70
2023-03-05T08:08:18.794Z,6.70
2023-03-05T08:10:45.832Z,6.80
2023-03-05T08:13:12.788Z,6.90
2023-03-05T08:15:39.859Z,6.90
2023-03-05T08:18:06.949Z,6.90
2023-03-05T08:20:36.800Z,6.90
2023-03-05T08:23:04.093Z,6.80
2023-03-05T08:25:31.701Z,6.80
2023-03-05T08:27:58.756Z,7.00
2023-03-05T08:30:27.759Z,7.30
2023-03-05T08:32:56.265Z,7.50
2023-03-05T08:35:23.734Z,7.70
2023-03-05T08:37:50.823Z,7.90
2023-03-05T08:40:18.399Z,8.10
2023-03-05T08:42:45.464Z,8.20
2023-03-05T08:45:13.213Z,8.30
2023-03-05T08:47:40.626Z,8.50
2023-03-05T08:50:08.880Z,8.80
2023-03-05T08:52:36.119Z,9.00
2023-03-05T08:55:03.215Z,9.00
2023-03-05T08:57:30.234Z,9.20
2023-03-05T08:59:57.187Z,9.30
2023-03-05T09:02:24.104Z,9.20
2023-03-05T09:04:51.153Z,9.50
2023-03-05T09:07:18.159Z,9.80
2023-03-05T09:09:45.082Z,9.80
2023-03-05T09:12:13.532Z,9.60
2023-03-05T09:14:41.274Z,9.80
2023-03-05T09:17:08.713Z,9.70
2023-03-05T09:19:35.620Z,9.90
2023-03-05T09:22:02.906Z,10.00
2023-03-05T09:24:29.939Z,9.90
2023-03-05T09:27:00.499Z,9.90
2023-03-05T09:29:27.947Z,9.90
2023-03-05T09:31:55.099Z,10.10
2023-03-05T09:34:22.640Z,10.10
2023-03-05T09:36:50.118Z,10.30
2023-03-05T09:39:17.221Z,10.70
2023-03-05T09:41:50.165Z,10.80
2023-03-05T09:44:26.190Z,10.90
2023-03-05T09:47:16.484Z,10.90
2023-03-05T09:49:48.446Z,10.90
2023-03-05T09:52:20.688Z,10.80
2023-03-05T09:54:49.574Z,10.80
2023-03-05T09:57:22.409Z,10.80
2023-03-05T09:59:54.535Z,10.70
2023-03-05T10:02:25.744Z,10.80
2023-03-05T10:04:55.376Z,10.60
2023-03-05T10:07:32.835Z,10.60
2023-03-05T10:10:05.430Z,10.60
2023-03-05T10:12:43.182Z,10.60
2023-03-05T10:15:21.234Z,10.40
2023-03-05T10:17:48.249Z,10.60
2023-03-05T10:20:15.191Z,10.80
2023-03-05T10:22:54.615Z,10.60
2023-03-05T10:25:21.471Z,10.10
2023-03-05T10:28:01.165Z,10.30
2023-03-05T10:30:46.794Z,10.30
2023-03-05T10:33:22.792Z,10.40
2023-03-05T10:36:14.028Z,10.50
2023-03-05T10:38:46.193Z,10.80
2023-03-05T10:41:27.824Z,10.70
2023-03-05T10:44:03.916Z,10.90
2023-03-05T10:46:37.545Z,11.20
2023-03-05T10:49:27.890Z,11.30
2023-03-05T10:51:59.930Z,11.10
2023-03-05T10:54:34.046Z,11.10
2023-03-05T10:57:21.275Z,11.30
2023-03-05T10:59:52.776Z,11.30
2023-03-05T11:02:20.355Z,11.00
2023-03-05T11:04:47.599Z,10.90
2023-03-05T11:07:14.615Z,10.80
2023-03-05T11:10:00.334Z,10.50
2023-03-05T11:12:27.900Z,10.60
2023-03-05T11:15:03.851Z,10.40
2023-03-05T11:17:40.653Z,10.40
2023-03-05T11:20:26.351Z,10.50
2023-03-05T11:23:12.314Z,10.60
2023-03-05T11:25:54.401Z,10.60
2023-03-05T11:28:32.259Z,10.90
2023-03-05T11:31:05.116Z,10.70
2023-03-05T11:33:32.096Z,10.70
2023-03-05T11:36:17.469Z,10.60
2023-03-05T11:38:46.382Z,10.40
2023-03-05T11:41:13.901Z,10.50
2023-03-05T11:43:41.957Z,10.40
2023-03-05T11:46:11.166Z,10.40
2023-03-05T11:48:39.213Z,10.50
2023-03-05T11:51:16.280Z,10.60
2023-03-05T11:53:45.079Z,10.50
2023-03-05T11:56:12.419Z,10.30
2023-03-05T11:58:41.711Z,10.40
2023-03-05T12:01:17.025Z,10.50
2023-03-05T12:03:44.292Z,10.40
2023-03-05T12:06:29.358Z,10.60
2023-03-05T12:08:58.030Z,10.50
2023-03-05T12:11:29.747Z,10.50
2023-03-05T12:13:56.717Z,10.50
2023-03-05T12:16:43.942Z,10.60
2023-03-05T12:19:18.535Z,10.80
2023-03-05T12:21:49.540Z,10.90
2023-03-05T12:24:28.136Z,11.00
2023-03-05T12:27:04.783Z,11.20
2023-03-05T12:29:31.670Z,11.20
2023-03-05T12:31:59.448Z,10.70
2023-03-05T12:34:41.821Z,10.60
2023-03-05T12:37:12.884Z,10.50
2023-03-05T12:39:49.656Z,10.60
2023-03-05T12:42:28.978Z,10.80
2023-03-05T12:45:18.449Z,11.00
2023-03-05T12:47:49.140Z,10.90
2023-03-05T12:50:29.250Z,10.90
2023-03-05T12:53:11.913Z,10.90
2023-03-05T12:55:49.125Z,10.90
2023-03-05T12:58:16.258Z,10.90
2023-03-05T13:00:45.244Z,11.00
2023-03-05T13:03:16.708Z,10.90
2023-03-05T13:05:51.940Z,11.00
2023-03-05T13:08:24.500Z,10.90
2023-03-05T13:10:59.981Z,10.90
2023-03-05T13:13:28.064Z,11.00
2023-03-05T13:15:55.220Z,11.10
2023-03-05T13:18:24.346Z,11.10
2023-03-05T13:21:02.809Z,11.10
2023-03-05T13:23:29.759Z,11.20
2023-03-05T13:25:59.797Z,11.10
2023-03-05T13:28:29.632Z,11.30
2023-03-05T13:31:02.411Z,11.30
2023-03-05T13:33:33.489Z,11.50
2023-03-05T13:36:08.694Z,11.50
2023-03-05T13:38:45.078Z,11.50
2023-03-05T13:41:12.030Z,11.40
2023-03-05T13:43:45.921Z,11.40
2023-03-05T13:46:13.538Z,11.30
2023-03-05T13:48:40.405Z,11.30
2023-03-05T13:51:12.047Z,11.30
2023-03-05T13:53:39.067Z,11.40
2023-03-05T13:56:07.605Z,11.20
2023-03-05T13:58:53.195Z,11.30
2023-03-05T14:01:33.907Z,11.30
2023-03-05T14:04:21.320Z,11.40
2023-03-05T14:06:48.324Z,11.50
2023-03-05T14:09:21.545Z,11.30
2023-03-05T14:11:55.964Z,11.30
2023-03-05T14:14:23.526Z,11.40
2023-03-05T14:16:50.533Z,11.60
2023-03-05T14:19:35.457Z,11.60
2023-03-05T14:22:02.626Z,11.60
2023-03-05T14:24:31.560Z,11.80
2023-03-05T14:27:05.829Z,11.90
2023-03-05T14:29:33.171Z,12.00
2023-03-05T14:32:02.956Z,12.10
2023-03-05T14:34:32.336Z,11.90
2023-03-05T14:37:01.184Z,11.90
2023-03-05T14:39:33.280Z,12.00
2023-03-05T14:42:32.603Z,12.00
2023-03-05T14:45:01.216Z,11.90
2023-03-05T14:47:28.636Z,11.80
2023-03-05T14:49:56.007Z,11.70
2023-03-05T14:52:24.343Z,11.80
2023-03-05T14:54:52.155Z,11.80
2023-03-05T14:57:21.618Z,11.70
2023-03-05T14:59:48.723Z,11.20
2023-03-05T15:02:20.374Z,11.10
2023-03-05T15:04:47.688Z,11.20
2023-03-05T15:07:19.427Z,11.30
2023-03-05T15:09:46.727Z,11.30
2023-03-05T15:12:14.886Z,11.30
2023-03-05T15:14:43.559Z,11.40
2023-03-05T15:17:14.219Z,11.40
2023-03-05T15:19:41.138Z,11.30
2023-03-05T15:22:09.772Z,11.30
2023-03-05T15:24:38.641Z,11.20
2023-03-05T15:27:06.482Z,11.10
2023-03-05T15:29:34.066Z,11.10
2023-03-05T15:32:01.905Z,11.00
2023-03-05T15:34:29.328Z,10.90
2023-03-05T15:36:56.345Z,11.00
2023-03-05T15:39:26.809Z,10.90
2023-03-05T15:41:53.862Z,10.90
2023-03-05T15:44:21.336Z,10.90
2023-03-05T15:46:48.330Z,10.70
2023-03-05T15:49:15.400Z,10.70
2023-03-05T15:51:42.426Z,10.70
2023-03-05T15:54:09.386Z,10.70
2023-03-05T15:56:36.705Z,10.60
2023-03-05T15:59:03.697Z,10.50
2023-03-05T16:01:30.691Z,10.50
2023-03-05T16:03:57.965Z,10.40
2023-03-05T16:06:25.190Z,10.40
2023-03-05T16:08:55.883Z,10.30
2023-03-05T16:11:22.889Z,10.20
2023-03-05T16:13:50.797Z,10.10
2023-03-05T16:16:21.036Z,10.10
2023-03-05T16:18:48.165Z,10.00
2023-03-05T16:21:15.312Z,9.90
2023-03-05T16:23:42.209Z,9.70
2023-03-05T16:26:11.024Z,9.60
2023-03-05T16:28:38.041Z,9.50
2023-03-05T16:31:05.581Z,9.40
2023-03-05T16:33:36.606Z,9.30
2023-03-05T16:36:21.180Z,9.10
2023-03-05T16:38:49.398Z,9.10
2023-03-05T16:41:17.215Z,8.90
2023-03-05T16:43:45.196Z,8.90
2023-03-05T16:46:13.043Z,8.80
2023-03-05T16:48:40.139Z,8.70
2023-03-05T16:51:07.456Z,8.50
2023-03-05T16:53:36.926Z,8.40
2023-03-05T16:56:04.983Z,8.20
2023-03-05T16:58:33.438Z,8.10
2023-03-05T17:01:00.588Z,8.00
2023-03-05T17:03:28.016Z,7.90
2023-03-05T17:05:59.853Z,7.80
2023-03-05T17:08:27.432Z,7.70
2023-03-05T17:10:54.429Z,7.60
2023-03-05T17:13:21.380Z,7.50
2023-03-05T17:15:48.415Z,7.40
2023-03-05T17:18:15.483Z,7.30
2023-03-05T17:20:42.628Z,7.10
2023-03-05T17:23:17.482Z,7.10
2023-03-05T17:25:52.231Z,7.00
2023-03-05T17:28:28.855Z,6.80
2023-03-05T17:31:05.668Z,6.70
2023-03-05T17:33:41.990Z,6.60
2023-03-05T17:36:20.489Z,6.50
2023-03-05T17:38:55.674Z,6.30
2023-03-05T17:41:30.992Z,6.20
2023-03-05T17:44:07.473Z,6.20
2023-03-05T17:46:46.006Z,6.10
2023-03-05T17:49:25.171Z,6.00
2023-03-05T17:52:00.085Z,5.90
2023-03-05T17:54:35.849Z,5.80
2023-03-05T17:57:04.009Z,5.80
2023-03-05T17:59:45.106Z,5.70
2023-03-05T18:02:19.289Z,5.70
2023-03-05T18:04:57.616Z,5.60
2023-03-05T18:07:35.505Z,5.60
2023-03-05T18:10:15.214Z,5.70
2023-03-05T18:12:50.178Z,5.60
2023-03-05T18:15:25.774Z,5.60
2023-03-05T18:17:58.992Z,5.60
2023-03-05T18:20:36.374Z,5.60
2023-03-05T18:23:11.573Z,5.60
2023-03-05T18:25:46.008Z,5.50
2023-03-05T18:28:21.676Z,5.40
2023-03-05T18:30:55.923Z,5.30
2023-03-05T18:33:31.140Z,5.20
2023-03-05T18:35:59.331Z,5.20
2023-03-05T18:38:35.900Z,5.10
2023-03-05T18:41:05.179Z,5.00
2023-03-05T18:43:32.304Z,5.00
2023-03-05T18:45:59.296Z,4.90
2023-03-05T18:48:26.456Z,4.90
2023-03-05T18:50:53.674Z,4.80
2023-03-05T18:53:21.723Z,4.70
2023-03-05T18:55:50.976Z,4.70
2023-03-05T18:58:18.308Z,4.60
2023-03-05T19:00:47.257Z,4.60
2023-03-05T19:03:14.513Z,4.60
2023-03-05T19:05:41.894Z,4.50
2023-03-05T19:08:09.678Z,4.50
2023-03-05T19:10:36.921Z,4.40
2023-03-05T19:13:40.167Z,4.40
2023-03-05T19:16:11.760Z,4.40
2023-03-05T19:19:01.489Z,4.30
2023-03-05T19:21:29.722Z,4.20
2023-03-05T19:23:56.996Z,4.20
2023-03-05T19:26:23.911Z,4.20
2023-03-05T19:28:50.892Z,4.20
2023-03-05T19:31:17.983Z,4.10
2023-03-05T19:33:44.982Z,4.00
2023-03-05T19:36:12.772Z,3.90
2023-03-05T19:38:39.934Z,3.90
2023-03-05T19:41:08.816Z,3.90
2023-03-05T19:43:38.786Z,3.90
2023-03-05T19:46:07.379Z,3.80
2023-03-05T19:48:35.184Z,3.80
2023-03-05T19:51:03.354Z,3.70
2023-03-05T19:53:30.477Z,3.70
2023-03-05T19:55:57.415Z,3.60
2023-03-05T19:58:24.571Z,3.60
2023-03-05T20:00:53.871Z,3.60
2023-03-05T20:03:20.907Z,3.60
2023-03-05T20:05:47.909Z,3.60
2023-03-05T20:08:14.846Z,3.50
2023-03-05T20:10:41.881Z,3.50
2023-03-05T20:13:08.800Z,3.40
2023-03-05T20:15:35.751Z,3.40
2023-03-05T20:18:04.506Z,3.40
2023-03-05T20:20:31.582Z,3.30
2023-03-05T20:22:58.535Z,3.30
2023-03-05T20:25:25.477Z,3.30
2023-03-05T20:27:52.787Z,3.20
2023-03-05T20:30:19.928Z,3.20
2023-03-05T20:32:46.828Z,3.10
2023-03-05T20:35:15.367Z,3.20
2023-03-05T20:38:21.018Z,3.20
2023-03-05T20:40:49.102Z,3.20
2023-03-05T20:43:16.594Z,3.10
2023-03-05T20:45:43.496Z,3.10
2023-03-05T20:48:10.485Z,3.00
2023-03-05T20:50:37.464Z,3.00
2023-03-05T20:53:05.175Z,3.00
2023-03-05T20:55:32.795Z,3.00
2023-03-05T20:57:59.687Z,2.90
2023-03-05T21:00:26.898Z,2.90
2023-03-05T21:02:55.547Z,2.90
2023-03-05T21:05:25.977Z,2.80
2023-03-05T21:07:54.640Z,2.80
2023-03-05T21:10:21.694Z,2.70
2023-03-05T21:12:49.414Z,2.70
2023-03-05T21:15:18.318Z,2.70
2023-03-05T21:17:48.074Z,2.60
2023-03-05T21:20:16.440Z,2.60
2023-03-05T21:22:43.520Z,2.50
2023-03-05T21:25:24.958Z,2.50
2023-03-05T21:27:54.733Z,2.40
2023-03-05T21:30:22.483Z,2.40
2023-03-05T21:32:51.318Z,2.40
2023-03-05T21:35:19.492Z,2.40
2023-03-05T21:37:47.754Z,2.40
2023-03-05T21:40:16.824Z,2.40
2023-03-05T21:42:44.748Z,2.30
2023-03-05T21:45:13.255Z,2.20
2023-03-05T21:47:40.367Z,2.20
2023-03-05T21:50:08.397Z,2.20
2023-03-05T21:52:35.345Z,2.20
2023-03-05T21:55:02.307Z,2.20
2023-03-05T21:57:30.385Z,2.20
2023-03-05T21:59:57.455Z,2.10
2023-03-05T22:02:24.838Z,2.10
2023-03-05T22:04:51.841Z,2.10
2023-03-05T22:07:19.526Z,2.10
2023-03-05T22:09:54.313Z,2.00
2023-03-05T22:12:53.154Z,2.00
2023-03-05T22:15:20.506Z,2.00
2023-03-05T22:17:47.371Z,2.00
2023-03-05T22:20:14.692Z,2.00
2023-03-05T22:22:42.086Z,1.90
2023-03-05T22:25:09.668Z,1.90
2023-03-05T22:27:36.576Z,1.90
2023-03-05T22:30:04.207Z,1.80
2023-03-05T22:32:33.226Z,1.80
2023-03-05T22:35:00.185Z,1.80
2023-03-05T22:37:28.322Z,1.80
2023-03-05T22:39:56.090Z,1.70
2023-03-05T22:42:23.430Z,1.70
2023-03-05T22:44:50.521Z,1.70
2023-03-05T22:47:17.481Z,1.60
2023-03-05T22:49:46.783Z,1.60
2023-03-05T22:52:13.841Z,1.60
2023-03-05T22:54:40.783Z,1.60
2023-03-05T22:57:08.855Z,1.50
2023-03-05T22:59:35.820Z,1.50
2023-03-05T23:02:02.753Z,1.50
2023-03-05T23:04:59.943Z,1.50
2023-03-05T23:07:31.781Z,1.40
2023-03-05T23:09:58.722Z,1.40
2023-03-05T23:12:27.063Z,1.40
2023-03-05T23:14:54.048Z,1.40
2023-03-05T23:17:20.998Z,1.40
2023-03-05T23:19:48.043Z,1.40
2023-03-05T23:22:18.056Z,1.40
2023-03-05T23:24:45.026Z,1.40
2023-03-05T23:27:14.311Z,1.40
2023-03-05T23:30:16.690Z,1.40
2023-03-05T23:33:04.298Z,1.40
2023-03-05T23:35:34.474Z,1.30
2023-03-05T23:38:02.007Z,1.30
2023-03-05T23:40:33.339Z,1.20
2023-03-05T23:43:00.840Z,1.20
2023-03-05T23:45:28.690Z,1.20
2023-03-05T23:47:55.899Z,1.20
2023-03-05T23:50:23.343Z,1.10
2023-03-05T23:52:51.008Z,1.10
2023-03-05T23:55:21.667Z,1.10
2023-03-05T23:57:53.543Z,1.10
